Silver Peak Trail, Santa Catalina Island Weather observations

Data are for 10 minute period ending at time listed.
 Day   Time   Solar   Ave.   Ave.  Ave.  Vector    Max.   Stn.    Total
  of    of     Rad.   Air    Rel.  Wind   Wind     Wind   Baro.  Precip.
Year   Day            Temp.  Hum.  Speed  Dir.     Gust   Pres.         
2015   (PST)   W/m2    F      %     mph   deg.      mph    mb.     in.  
------------------------------------------------------------------------
  24   14:10  536.0    67   25.5    16     12.6    23.9    999.0   0.00  
  24   14:20  516.0    67   25.4    16     11.3    20.3    999.0   0.00  
  24   14:30  494.0    67   25.3    14     16.4    20.9    999.0   0.00  
  24   14:40  471.0    67   25.3    13     18.9    20.9    999.0   0.00  
  24   14:50  447.0    67   25.7    10     17.5    15.5    999.0   0.00  
  24   15:00  422.0    67   25.8     9      8.3    12.5    999.0   0.00  
  24   15:10  397.0    67   25.9     7     12.7    11.9    999.0   0.00  
  24   15:20  370.0    67   26.5    11     16.0    12.5    999.0   0.00  
  24   15:30  342.0    67   25.3    12      4.8    17.3    999.0   0.00  
  24   15:40  313.0    68   24.4    13     12.2    17.9    999.0   0.00  
  24   15:50  283.0    68   24.9    14      8.0    19.7    999.0   0.00  
  24   16:00  253.0    68   24.6    15     13.5    22.1    999.0   0.00  
  24   16:10  224.0    68   24.2    16     12.5    20.9    999.0   0.00  
  24   16:20  194.0    67   24.9    17     14.0    22.7    999.0   0.00  
  24   16:30  165.0    67   25.0    22     15.7    28.6    999.0   0.00  
  24   16:40  135.0    67   25.5    26     17.1    33.4    999.0   0.00  
  24   16:50  105.0    67   26.1    26     17.2    31.6    999.0   0.00  
  24   17:00   76.0    66   26.5    24     20.0    28.6    999.0   0.00  
  24   17:10   49.0    66   27.0    22     17.1    29.8    999.0   0.00  
  24   17:20   24.0    66   28.2    21     18.7    24.5    999.0   0.00  
  24   17:30    5.0    66   29.0    21     14.8    24.5    999.0   0.00  
  24   17:40    1.0    66   28.2    20     11.5    23.9    999.0   0.00  
  24   17:50    0.0    65   28.6    19     15.6    25.6    999.0   0.00  
  24   18:00    0.0    65   29.1    20     13.2    24.5    999.0   0.00  
  24   18:10    0.0    66   28.7    20     11.0    25.6    999.0   0.00  
  24   18:20    0.0    65   29.9    19     10.3    24.5    999.0   0.00  
  24   18:30    0.0    65   30.5    18      9.7    21.5    999.0   0.00  
  24   18:40    0.0    65   30.5    20     18.0    24.5    999.0   0.00  
  24   18:50    0.0    65   31.1    21     23.0    25.6    999.0   0.00  
  24   19:00    0.0    65   31.7    22     27.3    25.6    999.0   0.00  
  24   19:10    0.0    65   31.9    24     31.4    29.8    999.0   0.00  
  24   19:20    0.0    65   32.6    24     28.4    29.2    999.0   0.00  
  24   19:30    0.0    65   31.2    26     22.9    31.6    999.0   0.00  
  24   19:40    0.0    65   30.6    26     21.2    35.8    999.0   0.00  
  24   19:50    0.0    65   31.2    27     19.6    33.4    999.0   0.00  
  24   20:00    0.0    65   30.3    25     28.9    34.0    999.0   0.00  
  24   20:10    0.0    65   27.7    29     22.0    40.5    999.0   0.00  
  24   20:20    0.0    66   27.3    30     11.1    45.3    999.0   0.00  
  24   20:30    0.0    66   25.2    32     19.5    50.1    999.0   0.00  
  24   20:40    0.0    65   27.2    31     13.4    42.9    999.0   0.00  
  24   20:50    0.0    65   28.5    33     25.4    48.3    999.0   0.00  
  24   21:00    0.0    65   27.3    35     21.6    50.7    999.0   0.00  
  24   21:10    0.0    66   24.7    38      7.9    50.1    999.0   0.00  
  24   21:20    0.0    66   24.5    38     14.0    44.7    999.0   0.00  
  24   21:30    0.0    66   25.4    35     18.2    42.3    999.0   0.00  
  24   21:40    0.0    65   28.4    32     16.4    37.0    999.0   0.00  
  24   21:50    0.0    64   30.7    31     12.2    38.8    999.0   0.00  
  24   22:00    0.0    64   30.9    34     16.1    44.1    999.0   0.00  
  24   22:10    0.0    64   33.5    31     17.0    37.0    999.0   0.00  
  24   22:20    0.0    64   33.6    32     17.3    37.0    999.0   0.00  
  24   22:30    0.0    64   33.3    32     17.1    39.3    999.0   0.00  
  24   22:40    0.0    64   32.1    33     17.3    39.9    999.0   0.00  
  24   22:50    0.0    65   28.4    36     12.3    43.5    999.0   0.00  
  24   23:00    0.0    65   29.0    36      8.4    48.9    999.0   0.00  
  24   23:10    0.0    65   29.4    34     15.2    41.1    999.0   0.00  
  24   23:20    0.0    65   28.2    32     19.0    37.0    999.0   0.00  
  24   23:30    0.0    65   27.6    29     17.2    35.2    999.0   0.00  
  24   23:40    0.0    64   28.7    29     22.2    33.4    999.0   0.00  
  24   23:50    0.0    64   28.9    27     26.7    33.4    999.0   0.00  
  25    0:00    0.0    64   29.8    25     32.2    30.4    999.0   0.00  
  25    0:10    0.0    64   29.1    23     33.0    28.6    999.0   0.00  
  25    0:20    0.0    64   29.8    20     41.5    24.5    999.0   0.00  
  25    0:30    0.0    65   27.4    20     60.9    25.0    999.0   0.00  
  25    0:40    0.0    66   25.1    19     62.4    27.4    999.0   0.00  
  25    0:50    0.0    66   24.4    18     62.7    24.5    999.0   0.00  
  25    1:00    0.0    65   25.6    16     52.9    22.7    999.0   0.00  
  25    1:10    0.0    65   27.0    15     52.0    19.1    999.0   0.00  
  25    1:20    0.0    65   26.2    16     53.2    22.1    999.0   0.00  
  25    1:30    0.0    65   25.2    15     46.7    19.7    999.0   0.00  
  25    1:40    0.0    65   25.9    17     36.9    20.9    999.0   0.00  
  25    1:50    0.0    65   24.8    14     42.6    18.5    999.0   0.00  
  25    2:00    0.0    66   23.4    13     52.4    17.9    999.0   0.00  
  25    2:10    0.0    66   22.0    13     53.4    16.7    999.0   0.00  
  25    2:20    0.0    66   21.5    14     57.3    18.5    999.0   0.00  
  25    2:30    0.0    67   21.0    12     74.0    15.5    999.0   0.00  
  25    2:40    0.0    66   21.2    10     84.0    14.3    999.0   0.00  
  25    2:50    0.0    66   21.6    10     81.5    14.3    999.0   0.00  
  25    3:00    0.0    67   21.3    11     73.2    12.5    999.0   0.00  
  25    3:10    0.0    67   21.2    12     50.8    14.9    999.0   0.00  
  25    3:20    0.0    67   21.0    14     49.6    17.3    999.0   0.00  
  25    3:30    0.0    67   20.3    13     56.0    16.7    999.0   0.00  
  25    3:40    0.0    67   20.1    12     38.8    13.7    999.0   0.00  
  25    3:50    0.0    68   19.8    11     47.2    13.7    999.0   0.00  
  25    4:00    0.0    67   20.5    14     38.6    17.3    999.0   0.00  
  25    4:10    0.0    66   20.9    17     37.6    19.7    999.0   0.00  
  25    4:20    0.0    67   20.4    18     30.9    23.3    999.0   0.00  
  25    4:30    0.0    67   20.7    19     33.0    24.5    999.0   0.00  
  25    4:40    0.0    66   21.5    20     33.0    24.5    999.0   0.00  
  25    4:50    0.0    66   21.8    20     35.1    25.0    999.0   0.00  
  25    5:00    0.0    66   22.3    21     37.0    26.2    999.0   0.00  
  25    5:10    0.0    65   22.9    20     33.6    23.3    999.0   0.00  
  25    5:20    0.0    66   22.8    19     37.1    20.9    999.0   0.00  
  25    5:30    0.0    66   22.9    18     39.1    20.9    999.0   0.00  
  25    5:40    0.0    66   22.6    19     36.0    25.0    999.0   0.00  
  25    5:50    0.0    66   22.6    20     39.1    25.0    999.0   0.00  
  25    6:00    0.0    66   22.7    20     32.8    24.5    999.0   0.00  
  25    6:10    0.0    66   23.0    20     33.0    23.3    999.0   0.00  
  25    6:20    0.0    65   24.2    19     29.1    22.7    999.0   0.00  
  25    6:30    0.0    63   27.4    19     24.5    23.9    999.0   0.00  
  25    6:40    0.0    64   25.4    22     34.4    25.0    999.0   0.00  
  25    6:50    1.0    64   24.4    23     32.2    26.8    999.0   0.00  
  25    7:00    6.0    64   24.3    22     34.7    24.5    999.0   0.00  
  25    7:10   25.0    64   24.6    23     33.6    25.6    999.0   0.00  
  25    7:20   12.0    63   25.3    22     32.2    26.2    999.0   0.00  
  25    7:30   66.0    64   25.2    21     33.1    26.2    999.0   0.00  
  25    7:40  108.0    64   25.6    23     33.2    26.8    999.0   0.00  
  25    7:50  138.0    64   24.8    24     27.1    29.8    999.0   0.00  
  25    8:00  168.0    64   25.3    25     22.0    30.4    999.0   0.00  
  25    8:10  199.0    64   26.7    26     20.2    31.0    999.0   0.00  
  25    8:20  230.0    64   27.8    26     24.9    29.8    999.0   0.00  
  25    8:30  261.0    64   27.4    24     18.1    29.2    999.0   0.00  
  25    8:40  292.0    64   27.0    20     26.3    26.2    999.0   0.00  
  25    8:50  322.0    65   26.8    17     43.3    22.7    999.0   0.00  
  25    9:00  351.0    66   25.0    19     65.4    26.8    999.0   0.00  
  25    9:10  379.0    68   23.0    16     66.4    29.2    999.0   0.00  
  25    9:20  407.0    69   22.0    14     69.8    22.7    999.0   0.00  
  25    9:30  434.0    69   21.8    15     65.3    24.5    999.0   0.00  
  25    9:40  459.0    69   22.0    14     65.0    22.1    999.0   0.00  
  25    9:50  484.0    68   22.6    17     55.9    24.5    999.0   0.00  
  25   10:00  506.0    68   22.9    14     63.3    22.1    999.0   0.00  
  25   10:10  528.0    70   22.5     9     85.4    15.5    999.0   0.00  
  25   10:20  548.0    71   22.4     8     84.3    16.1    999.0   0.00  
  25   10:30  566.0    72   22.4     8    102.3    12.5    999.0   0.00  
  25   10:40  583.0    73   23.5     6    118.1    11.9    999.0   0.00  
  25   10:50  599.0    74   26.5     5    168.5     9.0    999.0   0.00  
  25   11:00  615.0    71   27.8     8    195.6    10.8    999.0   0.00  
  25   11:10  621.0    71   25.2     6    207.9     9.0    999.0   0.00  
  25   11:20  620.0    73   23.8     3    152.6     6.0    999.0   0.00  
  25   11:30  662.0    74   24.5     2    162.9     4.8    999.0   0.00  
  25   11:40  646.0    73   26.1     3    197.2     6.0    999.0   0.00  
  25   11:50  658.0    72   27.8     4     47.3     6.0    999.0   0.00  
  25   12:00  661.0    72   29.6     4    223.2     9.0    999.0   0.00  
  25   12:10  658.0    71   24.2     6    208.2    10.2    999.0   0.00  
  25   12:20  634.0    73   23.8     4    190.9     7.8    999.0   0.00  
  25   12:30  681.0    74   25.2     3    209.3     6.6    999.0   0.00  
  25   12:40  542.0    74   23.1     4    218.5     7.2    999.0   0.00  
  25   12:50  429.0    72   24.9     2    226.2     5.4    999.0   0.00  
  25   13:00  352.0    72   22.5     7    215.9    10.8    999.0   0.00  
  25   13:10  384.0    72   22.1     6    208.8     9.0    999.0   0.00  
  25   13:20  391.0    71   21.3     8    214.4    10.2    999.0   0.00  
  25   13:30  429.0    72   20.9     7    210.1    10.2    999.0   0.00  
  25   13:40  460.0    73   21.1     8    213.3    11.9    999.0   0.00  
  25   13:50  443.0    72   20.6     8    217.7    11.3    999.0   0.00  
  25   14:00  723.0    74   20.5     8    211.3    11.3    999.0   0.00  

Return to Silver Peak Trail graphs page.


Western Regional Climate Center,wrcc@dri.edu